sensor_id;sensor_type;location;lat;lon;timestamp;P1;durP1;ratioP1;P2;durP2;ratioP2
78856;SDS011;68207;50.078;19.936;2023-04-25T00:00:23;22.10;;;17.10;;
78856;SDS011;68207;50.078;19.936;2023-04-25T00:02:48;19.40;;;16.50;;
78856;SDS011;68207;50.078;19.936;2023-04-25T00:05:14;17.00;;;14.30;;
78856;SDS011;68207;50.078;19.936;2023-04-25T00:07:42;11.60;;;8.50;;
78856;SDS011;68207;50.078;19.936;2023-04-25T00:10:08;8.40;;;6.50;;
78856;SDS011;68207;50.078;19.936;2023-04-25T00:12:34;4.80;;;3.40;;
78856;SDS011;68207;50.078;19.936;2023-04-25T00:15:01;5.30;;;3.00;;
78856;SDS011;68207;50.078;19.936;2023-04-25T00:17:26;3.70;;;2.70;;
78856;SDS011;68207;50.078;19.936;2023-04-25T00:19:52;3.50;;;2.80;;
78856;SDS011;68207;50.078;19.936;2023-04-25T00:22:17;3.90;;;2.50;;
78856;SDS011;68207;50.078;19.936;2023-04-25T00:24:43;4.20;;;2.50;;
78856;SDS011;68207;50.078;19.936;2023-04-25T00:27:08;4.80;;;2.40;;
78856;SDS011;68207;50.078;19.936;2023-04-25T00:29:33;2.80;;;2.10;;
78856;SDS011;68207;50.078;19.936;2023-04-25T00:31:59;2.50;;;1.80;;
78856;SDS011;68207;50.078;19.936;2023-04-25T00:34:25;2.50;;;2.00;;
78856;SDS011;68207;50.078;19.936;2023-04-25T00:36:50;3.10;;;2.10;;
78856;SDS011;68207;50.078;19.936;2023-04-25T00:39:16;2.70;;;2.00;;
78856;SDS011;68207;50.078;19.936;2023-04-25T00:41:41;3.50;;;2.00;;
78856;SDS011;68207;50.078;19.936;2023-04-25T00:44:08;2.10;;;1.60;;
78856;SDS011;68207;50.078;19.936;2023-04-25T00:46:36;3.10;;;1.90;;
78856;SDS011;68207;50.078;19.936;2023-04-25T00:49:02;2.30;;;1.80;;
78856;SDS011;68207;50.078;19.936;2023-04-25T00:51:27;2.50;;;1.90;;
78856;SDS011;68207;50.078;19.936;2023-04-25T00:53:53;3.00;;;1.70;;
78856;SDS011;68207;50.078;19.936;2023-04-25T00:56:19;2.50;;;1.90;;
78856;SDS011;68207;50.078;19.936;2023-04-25T00:58:44;2.40;;;1.70;;
78856;SDS011;68207;50.078;19.936;2023-04-25T01:01:10;2.20;;;1.60;;
78856;SDS011;68207;50.078;19.936;2023-04-25T01:03:38;2.10;;;1.80;;
78856;SDS011;68207;50.078;19.936;2023-04-25T01:06:10;2.80;;;1.90;;
78856;SDS011;68207;50.078;19.936;2023-04-25T01:08:37;3.20;;;2.00;;
78856;SDS011;68207;50.078;19.936;2023-04-25T01:11:04;4.70;;;2.20;;
78856;SDS011;68207;50.078;19.936;2023-04-25T01:13:30;2.50;;;1.70;;
78856;SDS011;68207;50.078;19.936;2023-04-25T01:15:57;2.80;;;2.40;;
78856;SDS011;68207;50.078;19.936;2023-04-25T01:18:23;2.40;;;1.80;;
78856;SDS011;68207;50.078;19.936;2023-04-25T01:20:50;2.80;;;2.00;;
78856;SDS011;68207;50.078;19.936;2023-04-25T01:23:16;2.80;;;2.00;;
78856;SDS011;68207;50.078;19.936;2023-04-25T01:25:41;2.30;;;1.90;;
78856;SDS011;68207;50.078;19.936;2023-04-25T01:28:07;2.40;;;2.00;;
78856;SDS011;68207;50.078;19.936;2023-04-25T01:30:32;2.20;;;1.60;;
78856;SDS011;68207;50.078;19.936;2023-04-25T01:32:58;4.20;;;2.30;;
78856;SDS011;68207;50.078;19.936;2023-04-25T01:35:24;2.50;;;2.00;;
78856;SDS011;68207;50.078;19.936;2023-04-25T01:37:50;3.50;;;2.40;;
78856;SDS011;68207;50.078;19.936;2023-04-25T01:42:43;3.70;;;2.40;;
78856;SDS011;68207;50.078;19.936;2023-04-25T01:45:10;3.30;;;2.50;;
78856;SDS011;68207;50.078;19.936;2023-04-25T01:47:37;4.20;;;2.60;;
78856;SDS011;68207;50.078;19.936;2023-04-25T01:50:04;3.80;;;2.40;;
78856;SDS011;68207;50.078;19.936;2023-04-25T01:52:32;4.30;;;2.10;;
78856;SDS011;68207;50.078;19.936;2023-04-25T01:54:57;2.80;;;1.90;;
78856;SDS011;68207;50.078;19.936;2023-04-25T01:57:26;4.20;;;2.80;;
78856;SDS011;68207;50.078;19.936;2023-04-25T01:59:52;3.60;;;3.00;;
78856;SDS011;68207;50.078;19.936;2023-04-25T02:02:23;3.30;;;2.80;;
78856;SDS011;68207;50.078;19.936;2023-04-25T02:04:48;3.70;;;2.90;;
78856;SDS011;68207;50.078;19.936;2023-04-25T02:07:13;5.90;;;3.20;;
78856;SDS011;68207;50.078;19.936;2023-04-25T02:09:39;2.70;;;1.90;;
78856;SDS011;68207;50.078;19.936;2023-04-25T02:12:04;3.90;;;2.80;;
78856;SDS011;68207;50.078;19.936;2023-04-25T02:14:30;3.60;;;2.40;;
78856;SDS011;68207;50.078;19.936;2023-04-25T02:16:55;4.40;;;3.20;;
78856;SDS011;68207;50.078;19.936;2023-04-25T02:19:20;4.40;;;3.30;;
78856;SDS011;68207;50.078;19.936;2023-04-25T02:21:45;3.40;;;2.80;;
78856;SDS011;68207;50.078;19.936;2023-04-25T02:24:11;3.90;;;3.00;;
78856;SDS011;68207;50.078;19.936;2023-04-25T02:26:36;4.60;;;3.30;;
78856;SDS011;68207;50.078;19.936;2023-04-25T02:29:01;4.30;;;3.40;;
78856;SDS011;68207;50.078;19.936;2023-04-25T02:31:27;4.70;;;3.70;;
78856;SDS011;68207;50.078;19.936;2023-04-25T02:33:52;5.30;;;3.40;;
78856;SDS011;68207;50.078;19.936;2023-04-25T02:36:17;3.70;;;3.00;;
78856;SDS011;68207;50.078;19.936;2023-04-25T02:38:42;5.60;;;3.50;;
78856;SDS011;68207;50.078;19.936;2023-04-25T02:41:08;4.30;;;3.70;;
78856;SDS011;68207;50.078;19.936;2023-04-25T02:43:33;5.00;;;3.70;;
78856;SDS011;68207;50.078;19.936;2023-04-25T02:45:58;4.20;;;3.60;;
78856;SDS011;68207;50.078;19.936;2023-04-25T02:48:23;5.70;;;3.70;;
78856;SDS011;68207;50.078;19.936;2023-04-25T02:50:49;3.90;;;3.10;;
78856;SDS011;68207;50.078;19.936;2023-04-25T02:53:14;4.80;;;3.10;;
78856;SDS011;68207;50.078;19.936;2023-04-25T02:55:40;3.70;;;2.80;;
78856;SDS011;68207;50.078;19.936;2023-04-25T02:58:05;4.60;;;3.60;;
78856;SDS011;68207;50.078;19.936;2023-04-25T03:00:30;5.40;;;3.30;;
78856;SDS011;68207;50.078;19.936;2023-04-25T03:02:56;4.20;;;3.10;;
78856;SDS011;68207;50.078;19.936;2023-04-25T03:05:21;4.40;;;2.50;;
78856;SDS011;68207;50.078;19.936;2023-04-25T03:07:46;3.50;;;2.70;;
78856;SDS011;68207;50.078;19.936;2023-04-25T03:10:12;5.10;;;3.90;;
78856;SDS011;68207;50.078;19.936;2023-04-25T03:12:37;4.70;;;3.60;;
78856;SDS011;68207;50.078;19.936;2023-04-25T03:15:03;8.30;;;3.40;;
78856;SDS011;68207;50.078;19.936;2023-04-25T03:17:29;4.10;;;3.30;;
78856;SDS011;68207;50.078;19.936;2023-04-25T03:19:54;4.20;;;3.20;;
78856;SDS011;68207;50.078;19.936;2023-04-25T03:22:20;4.30;;;3.10;;
78856;SDS011;68207;50.078;19.936;2023-04-25T03:24:45;6.40;;;3.90;;
78856;SDS011;68207;50.078;19.936;2023-04-25T03:27:10;5.10;;;3.80;;
78856;SDS011;68207;50.078;19.936;2023-04-25T03:29:36;5.70;;;4.20;;
78856;SDS011;68207;50.078;19.936;2023-04-25T03:32:01;6.20;;;4.30;;
78856;SDS011;68207;50.078;19.936;2023-04-25T03:34:26;5.10;;;4.00;;
78856;SDS011;68207;50.078;19.936;2023-04-25T03:36:52;6.50;;;5.00;;
78856;SDS011;68207;50.078;19.936;2023-04-25T03:39:17;6.80;;;4.40;;
78856;SDS011;68207;50.078;19.936;2023-04-25T03:41:42;6.50;;;4.90;;
78856;SDS011;68207;50.078;19.936;2023-04-25T03:44:08;5.90;;;4.60;;
78856;SDS011;68207;50.078;19.936;2023-04-25T03:46:33;6.00;;;4.60;;
78856;SDS011;68207;50.078;19.936;2023-04-25T03:48:58;5.80;;;4.10;;
78856;SDS011;68207;50.078;19.936;2023-04-25T03:51:24;6.50;;;5.10;;
78856;SDS011;68207;50.078;19.936;2023-04-25T03:53:50;8.40;;;5.20;;
78856;SDS011;68207;50.078;19.936;2023-04-25T03:56:15;6.40;;;5.20;;
78856;SDS011;68207;50.078;19.936;2023-04-25T03:58:40;7.00;;;4.40;;
78856;SDS011;68207;50.078;19.936;2023-04-25T04:01:06;4.70;;;3.90;;
78856;SDS011;68207;50.078;19.936;2023-04-25T04:03:35;7.20;;;4.90;;
78856;SDS011;68207;50.078;19.936;2023-04-25T04:06:03;6.10;;;4.70;;
78856;SDS011;68207;50.078;19.936;2023-04-25T04:08:30;6.60;;;4.70;;
78856;SDS011;68207;50.078;19.936;2023-04-25T04:10:56;5.40;;;3.90;;
78856;SDS011;68207;50.078;19.936;2023-04-25T04:13:23;7.40;;;5.60;;
78856;SDS011;68207;50.078;19.936;2023-04-25T04:15:50;6.60;;;4.90;;
78856;SDS011;68207;50.078;19.936;2023-04-25T04:18:15;7.80;;;6.20;;
78856;SDS011;68207;50.078;19.936;2023-04-25T04:20:41;6.40;;;5.40;;
78856;SDS011;68207;50.078;19.936;2023-04-25T04:23:06;6.10;;;5.50;;
78856;SDS011;68207;50.078;19.936;2023-04-25T04:25:31;10.00;;;6.40;;
78856;SDS011;68207;50.078;19.936;2023-04-25T04:27:56;6.60;;;5.00;;
78856;SDS011;68207;50.078;19.936;2023-04-25T04:30:23;6.30;;;4.80;;
78856;SDS011;68207;50.078;19.936;2023-04-25T04:32:54;7.10;;;5.80;;
78856;SDS011;68207;50.078;19.936;2023-04-25T04:35:20;7.20;;;4.90;;
78856;SDS011;68207;50.078;19.936;2023-04-25T04:37:46;6.60;;;5.10;;
78856;SDS011;68207;50.078;19.936;2023-04-25T04:40:11;6.90;;;5.50;;
78856;SDS011;68207;50.078;19.936;2023-04-25T04:42:36;6.50;;;5.10;;
78856;SDS011;68207;50.078;19.936;2023-04-25T04:45:02;5.20;;;4.50;;
78856;SDS011;68207;50.078;19.936;2023-04-25T04:47:28;7.80;;;5.60;;
78856;SDS011;68207;50.078;19.936;2023-04-25T04:49:56;8.40;;;6.00;;
78856;SDS011;68207;50.078;19.936;2023-04-25T04:52:21;8.40;;;6.10;;
78856;SDS011;68207;50.078;19.936;2023-04-25T04:54:47;7.10;;;5.70;;
78856;SDS011;68207;50.078;19.936;2023-04-25T04:57:12;6.80;;;4.70;;
78856;SDS011;68207;50.078;19.936;2023-04-25T04:59:37;6.80;;;6.00;;
78856;SDS011;68207;50.078;19.936;2023-04-25T05:02:03;10.00;;;7.50;;
78856;SDS011;68207;50.078;19.936;2023-04-25T05:04:28;10.70;;;7.90;;
78856;SDS011;68207;50.078;19.936;2023-04-25T05:06:53;12.10;;;8.40;;
78856;SDS011;68207;50.078;19.936;2023-04-25T05:09:18;7.70;;;5.90;;
78856;SDS011;68207;50.078;19.936;2023-04-25T05:11:44;7.30;;;5.70;;
78856;SDS011;68207;50.078;19.936;2023-04-25T05:14:09;9.10;;;6.70;;
78856;SDS011;68207;50.078;19.936;2023-04-25T05:16:34;10.50;;;6.20;;
78856;SDS011;68207;50.078;19.936;2023-04-25T05:19:00;8.10;;;6.50;;
78856;SDS011;68207;50.078;19.936;2023-04-25T05:21:25;10.80;;;6.80;;
78856;SDS011;68207;50.078;19.936;2023-04-25T05:23:52;9.20;;;6.10;;
78856;SDS011;68207;50.078;19.936;2023-04-25T05:26:18;8.10;;;5.60;;
78856;SDS011;68207;50.078;19.936;2023-04-25T05:28:43;6.10;;;3.80;;
78856;SDS011;68207;50.078;19.936;2023-04-25T05:31:09;11.30;;;5.20;;
78856;SDS011;68207;50.078;19.936;2023-04-25T05:33:35;6.30;;;3.70;;
78856;SDS011;68207;50.078;19.936;2023-04-25T05:36:00;7.20;;;4.20;;
78856;SDS011;68207;50.078;19.936;2023-04-25T05:38:26;9.10;;;4.40;;
78856;SDS011;68207;50.078;19.936;2023-04-25T05:40:51;4.20;;;3.40;;
78856;SDS011;68207;50.078;19.936;2023-04-25T05:43:17;6.90;;;3.50;;
78856;SDS011;68207;50.078;19.936;2023-04-25T05:45:42;8.60;;;4.10;;
78856;SDS011;68207;50.078;19.936;2023-04-25T05:48:07;6.90;;;4.00;;
78856;SDS011;68207;50.078;19.936;2023-04-25T05:50:33;4.50;;;3.50;;
78856;SDS011;68207;50.078;19.936;2023-04-25T05:52:58;5.00;;;3.60;;
78856;SDS011;68207;50.078;19.936;2023-04-25T05:55:23;5.90;;;3.90;;
78856;SDS011;68207;50.078;19.936;2023-04-25T05:57:49;5.40;;;3.60;;
78856;SDS011;68207;50.078;19.936;2023-04-25T06:00:14;4.30;;;3.00;;
78856;SDS011;68207;50.078;19.936;2023-04-25T06:02:41;6.70;;;3.30;;
78856;SDS011;68207;50.078;19.936;2023-04-25T06:05:06;7.70;;;3.40;;
78856;SDS011;68207;50.078;19.936;2023-04-25T06:07:32;6.40;;;3.40;;
78856;SDS011;68207;50.078;19.936;2023-04-25T06:09:58;6.40;;;3.60;;
78856;SDS011;68207;50.078;19.936;2023-04-25T06:12:24;8.30;;;3.60;;
78856;SDS011;68207;50.078;19.936;2023-04-25T06:14:49;4.30;;;3.00;;
78856;SDS011;68207;50.078;19.936;2023-04-25T06:17:14;4.50;;;3.00;;
78856;SDS011;68207;50.078;19.936;2023-04-25T06:19:40;6.10;;;3.50;;
78856;SDS011;68207;50.078;19.936;2023-04-25T06:22:05;5.10;;;3.90;;
78856;SDS011;68207;50.078;19.936;2023-04-25T06:26:57;6.50;;;3.70;;
78856;SDS011;68207;50.078;19.936;2023-04-25T06:29:22;6.00;;;3.90;;
78856;SDS011;68207;50.078;19.936;2023-04-25T06:31:48;6.70;;;3.90;;
78856;SDS011;68207;50.078;19.936;2023-04-25T06:34:13;4.80;;;3.50;;
78856;SDS011;68207;50.078;19.936;2023-04-25T06:36:38;5.70;;;3.60;;
78856;SDS011;68207;50.078;19.936;2023-04-25T06:39:04;5.50;;;4.20;;
78856;SDS011;68207;50.078;19.936;2023-04-25T06:41:29;7.70;;;4.40;;
78856;SDS011;68207;50.078;19.936;2023-04-25T06:43:55;8.30;;;4.50;;
78856;SDS011;68207;50.078;19.936;2023-04-25T06:46:20;8.10;;;4.20;;
78856;SDS011;68207;50.078;19.936;2023-04-25T06:48:45;8.10;;;4.50;;
78856;SDS011;68207;50.078;19.936;2023-04-25T06:51:11;8.90;;;3.80;;
78856;SDS011;68207;50.078;19.936;2023-04-25T06:53:38;5.00;;;3.70;;
78856;SDS011;68207;50.078;19.936;2023-04-25T06:56:03;5.90;;;4.30;;
78856;SDS011;68207;50.078;19.936;2023-04-25T06:58:29;4.50;;;3.80;;
78856;SDS011;68207;50.078;19.936;2023-04-25T07:00:54;5.50;;;4.00;;
78856;SDS011;68207;50.078;19.936;2023-04-25T07:03:20;6.00;;;3.80;;
78856;SDS011;68207;50.078;19.936;2023-04-25T07:05:45;4.00;;;2.90;;
78856;SDS011;68207;50.078;19.936;2023-04-25T07:08:11;4.60;;;3.40;;
78856;SDS011;68207;50.078;19.936;2023-04-25T07:10:36;3.90;;;3.10;;
78856;SDS011;68207;50.078;19.936;2023-04-25T07:13:01;3.90;;;3.20;;
78856;SDS011;68207;50.078;19.936;2023-04-25T07:15:26;5.70;;;4.20;;
78856;SDS011;68207;50.078;19.936;2023-04-25T07:17:52;5.50;;;3.60;;
78856;SDS011;68207;50.078;19.936;2023-04-25T07:20:17;5.40;;;3.50;;
78856;SDS011;68207;50.078;19.936;2023-04-25T07:22:42;4.70;;;3.80;;
78856;SDS011;68207;50.078;19.936;2023-04-25T07:25:08;4.00;;;3.50;;
78856;SDS011;68207;50.078;19.936;2023-04-25T07:27:33;4.70;;;2.90;;
78856;SDS011;68207;50.078;19.936;2023-04-25T07:29:59;4.50;;;3.40;;
78856;SDS011;68207;50.078;19.936;2023-04-25T07:32:24;3.70;;;2.90;;
78856;SDS011;68207;50.078;19.936;2023-04-25T07:34:50;3.20;;;2.50;;
78856;SDS011;68207;50.078;19.936;2023-04-25T07:37:16;5.50;;;3.70;;
78856;SDS011;68207;50.078;19.936;2023-04-25T07:39:43;5.40;;;3.60;;
78856;SDS011;68207;50.078;19.936;2023-04-25T07:42:10;4.40;;;3.60;;
78856;SDS011;68207;50.078;19.936;2023-04-25T07:44:36;5.30;;;3.20;;
78856;SDS011;68207;50.078;19.936;2023-04-25T07:47:08;3.80;;;2.90;;
78856;SDS011;68207;50.078;19.936;2023-04-25T07:49:34;3.90;;;3.10;;
78856;SDS011;68207;50.078;19.936;2023-04-25T07:52:00;3.70;;;3.10;;
78856;SDS011;68207;50.078;19.936;2023-04-25T07:54:26;4.70;;;2.60;;
78856;SDS011;68207;50.078;19.936;2023-04-25T07:56:51;2.50;;;2.10;;
78856;SDS011;68207;50.078;19.936;2023-04-25T07:59:17;3.40;;;2.50;;
78856;SDS011;68207;50.078;19.936;2023-04-25T08:01:42;3.40;;;2.50;;
78856;SDS011;68207;50.078;19.936;2023-04-25T08:04:07;3.00;;;2.40;;
78856;SDS011;68207;50.078;19.936;2023-04-25T08:06:32;3.30;;;2.40;;
78856;SDS011;68207;50.078;19.936;2023-04-25T08:08:58;4.30;;;2.40;;
78856;SDS011;68207;50.078;19.936;2023-04-25T08:11:23;4.70;;;3.10;;
78856;SDS011;68207;50.078;19.936;2023-04-25T08:13:48;5.00;;;3.60;;
78856;SDS011;68207;50.078;19.936;2023-04-25T08:16:14;4.40;;;3.40;;
78856;SDS011;68207;50.078;19.936;2023-04-25T08:18:39;5.20;;;3.40;;
78856;SDS011;68207;50.078;19.936;2023-04-25T08:21:04;3.80;;;2.70;;
78856;SDS011;68207;50.078;19.936;2023-04-25T08:23:30;6.90;;;3.20;;
78856;SDS011;68207;50.078;19.936;2023-04-25T08:25:55;4.40;;;3.30;;
78856;SDS011;68207;50.078;19.936;2023-04-25T08:28:20;4.00;;;2.90;;
78856;SDS011;68207;50.078;19.936;2023-04-25T08:30:46;3.80;;;2.80;;
78856;SDS011;68207;50.078;19.936;2023-04-25T08:33:11;3.50;;;3.00;;
78856;SDS011;68207;50.078;19.936;2023-04-25T08:35:36;4.10;;;3.20;;
78856;SDS011;68207;50.078;19.936;2023-04-25T08:38:02;4.10;;;3.20;;
78856;SDS011;68207;50.078;19.936;2023-04-25T08:40:27;4.20;;;3.10;;
78856;SDS011;68207;50.078;19.936;2023-04-25T08:42:59;4.10;;;3.30;;
78856;SDS011;68207;50.078;19.936;2023-04-25T08:45:26;4.00;;;3.60;;
78856;SDS011;68207;50.078;19.936;2023-04-25T08:47:53;5.20;;;3.60;;
78856;SDS011;68207;50.078;19.936;2023-04-25T08:50:18;3.90;;;3.10;;
78856;SDS011;68207;50.078;19.936;2023-04-25T08:52:47;4.00;;;3.00;;
78856;SDS011;68207;50.078;19.936;2023-04-25T08:55:15;3.00;;;2.70;;
78856;SDS011;68207;50.078;19.936;2023-04-25T08:57:41;6.40;;;4.40;;
78856;SDS011;68207;50.078;19.936;2023-04-25T09:00:11;5.60;;;3.90;;
78856;SDS011;68207;50.078;19.936;2023-04-25T09:02:38;5.70;;;3.80;;
78856;SDS011;68207;50.078;19.936;2023-04-25T09:05:04;5.20;;;3.50;;
78856;SDS011;68207;50.078;19.936;2023-04-25T09:07:31;4.70;;;3.70;;
78856;SDS011;68207;50.078;19.936;2023-04-25T09:09:56;5.20;;;3.20;;
78856;SDS011;68207;50.078;19.936;2023-04-25T09:12:24;4.60;;;3.00;;
78856;SDS011;68207;50.078;19.936;2023-04-25T09:15:09;3.60;;;3.00;;
78856;SDS011;68207;50.078;19.936;2023-04-25T09:17:36;3.10;;;2.80;;
78856;SDS011;68207;50.078;19.936;2023-04-25T09:20:09;3.80;;;3.20;;
78856;SDS011;68207;50.078;19.936;2023-04-25T09:22:36;3.10;;;2.80;;
78856;SDS011;68207;50.078;19.936;2023-04-25T09:25:03;4.30;;;3.30;;
78856;SDS011;68207;50.078;19.936;2023-04-25T09:27:36;3.60;;;3.00;;
78856;SDS011;68207;50.078;19.936;2023-04-25T09:30:01;4.10;;;3.40;;
78856;SDS011;68207;50.078;19.936;2023-04-25T09:32:28;5.30;;;4.00;;
78856;SDS011;68207;50.078;19.936;2023-04-25T09:34:54;4.50;;;3.20;;
78856;SDS011;68207;50.078;19.936;2023-04-25T09:37:21;5.00;;;3.60;;
78856;SDS011;68207;50.078;19.936;2023-04-25T09:39:55;5.50;;;3.90;;
78856;SDS011;68207;50.078;19.936;2023-04-25T09:42:22;5.90;;;4.30;;
78856;SDS011;68207;50.078;19.936;2023-04-25T09:44:49;5.10;;;4.00;;
78856;SDS011;68207;50.078;19.936;2023-04-25T09:47:17;5.20;;;3.60;;
78856;SDS011;68207;50.078;19.936;2023-04-25T09:49:43;5.50;;;3.00;;
78856;SDS011;68207;50.078;19.936;2023-04-25T09:52:09;6.10;;;3.50;;
78856;SDS011;68207;50.078;19.936;2023-04-25T09:54:42;3.00;;;2.40;;
78856;SDS011;68207;50.078;19.936;2023-04-25T09:57:11;3.40;;;2.70;;
78856;SDS011;68207;50.078;19.936;2023-04-25T09:59:44;3.00;;;2.60;;
78856;SDS011;68207;50.078;19.936;2023-04-25T10:02:11;3.30;;;2.50;;
78856;SDS011;68207;50.078;19.936;2023-04-25T10:04:38;3.80;;;2.80;;
78856;SDS011;68207;50.078;19.936;2023-04-25T10:07:07;3.40;;;2.40;;
78856;SDS011;68207;50.078;19.936;2023-04-25T10:09:33;2.50;;;2.30;;
78856;SDS011;68207;50.078;19.936;2023-04-25T10:12:02;3.40;;;2.40;;
78856;SDS011;68207;50.078;19.936;2023-04-25T10:14:29;3.00;;;2.40;;
78856;SDS011;68207;50.078;19.936;2023-04-25T10:16:56;3.90;;;2.70;;
78856;SDS011;68207;50.078;19.936;2023-04-25T10:19:23;2.90;;;2.20;;
78856;SDS011;68207;50.078;19.936;2023-04-25T10:21:55;2.60;;;2.20;;
78856;SDS011;68207;50.078;19.936;2023-04-25T10:24:27;2.80;;;2.40;;
78856;SDS011;68207;50.078;19.936;2023-04-25T10:26:53;4.50;;;2.70;;
78856;SDS011;68207;50.078;19.936;2023-04-25T10:29:22;3.80;;;2.60;;
78856;SDS011;68207;50.078;19.936;2023-04-25T10:31:48;3.00;;;2.70;;
78856;SDS011;68207;50.078;19.936;2023-04-25T10:34:15;3.10;;;2.00;;
78856;SDS011;68207;50.078;19.936;2023-04-25T10:36:41;2.50;;;2.10;;
78856;SDS011;68207;50.078;19.936;2023-04-25T10:39:06;3.60;;;2.70;;
78856;SDS011;68207;50.078;19.936;2023-04-25T10:41:46;4.00;;;2.50;;
78856;SDS011;68207;50.078;19.936;2023-04-25T10:44:15;3.90;;;2.90;;
78856;SDS011;68207;50.078;19.936;2023-04-25T10:46:40;2.80;;;2.20;;
78856;SDS011;68207;50.078;19.936;2023-04-25T10:49:06;3.10;;;2.50;;
78856;SDS011;68207;50.078;19.936;2023-04-25T10:51:33;3.50;;;2.70;;
78856;SDS011;68207;50.078;19.936;2023-04-25T10:54:02;4.40;;;2.60;;
78856;SDS011;68207;50.078;19.936;2023-04-25T10:56:29;3.60;;;2.80;;
78856;SDS011;68207;50.078;19.936;2023-04-25T10:59:14;3.80;;;3.00;;
78856;SDS011;68207;50.078;19.936;2023-04-25T11:01:47;3.00;;;2.70;;
78856;SDS011;68207;50.078;19.936;2023-04-25T11:07:13;2.90;;;2.50;;
78856;SDS011;68207;50.078;19.936;2023-04-25T11:09:48;4.60;;;2.70;;
78856;SDS011;68207;50.078;19.936;2023-04-25T11:12:13;4.60;;;2.80;;
78856;SDS011;68207;50.078;19.936;2023-04-25T11:14:39;3.30;;;2.70;;
78856;SDS011;68207;50.078;19.936;2023-04-25T11:17:05;3.50;;;2.60;;
78856;SDS011;68207;50.078;19.936;2023-04-25T11:19:31;2.90;;;2.50;;
78856;SDS011;68207;50.078;19.936;2023-04-25T11:21:57;4.30;;;3.20;;
78856;SDS011;68207;50.078;19.936;2023-04-25T11:24:27;3.80;;;2.50;;
78856;SDS011;68207;50.078;19.936;2023-04-25T11:26:59;3.70;;;2.70;;
78856;SDS011;68207;50.078;19.936;2023-04-25T11:29:27;4.10;;;2.80;;
78856;SDS011;68207;50.078;19.936;2023-04-25T11:31:53;3.80;;;2.60;;
78856;SDS011;68207;50.078;19.936;2023-04-25T11:34:22;4.00;;;3.00;;
78856;SDS011;68207;50.078;19.936;2023-04-25T11:36:48;4.30;;;2.60;;
78856;SDS011;68207;50.078;19.936;2023-04-25T11:39:13;3.50;;;3.00;;
78856;SDS011;68207;50.078;19.936;2023-04-25T11:41:40;4.00;;;3.10;;
78856;SDS011;68207;50.078;19.936;2023-04-25T11:44:06;4.10;;;3.00;;
78856;SDS011;68207;50.078;19.936;2023-04-25T11:46:35;3.70;;;2.80;;
78856;SDS011;68207;50.078;19.936;2023-04-25T11:49:00;4.20;;;3.00;;
78856;SDS011;68207;50.078;19.936;2023-04-25T11:51:25;3.70;;;3.10;;
78856;SDS011;68207;50.078;19.936;2023-04-25T11:53:51;3.60;;;2.80;;
78856;SDS011;68207;50.078;19.936;2023-04-25T11:56:16;4.10;;;2.90;;
78856;SDS011;68207;50.078;19.936;2023-04-25T11:58:57;3.90;;;2.80;;
78856;SDS011;68207;50.078;19.936;2023-04-25T12:01:34;4.30;;;2.90;;
78856;SDS011;68207;50.078;19.936;2023-04-25T12:06:53;4.40;;;3.50;;
78856;SDS011;68207;50.078;19.936;2023-04-25T12:09:29;4.90;;;3.00;;
78856;SDS011;68207;50.078;19.936;2023-04-25T12:11:56;5.50;;;3.30;;
78856;SDS011;68207;50.078;19.936;2023-04-25T12:14:31;4.60;;;3.10;;
78856;SDS011;68207;50.078;19.936;2023-04-25T12:16:59;4.90;;;2.80;;
78856;SDS011;68207;50.078;19.936;2023-04-25T12:19:26;3.70;;;2.60;;
78856;SDS011;68207;50.078;19.936;2023-04-25T12:21:58;7.20;;;2.80;;
78856;SDS011;68207;50.078;19.936;2023-04-25T12:24:25;5.40;;;2.50;;
78856;SDS011;68207;50.078;19.936;2023-04-25T12:27:05;4.30;;;2.80;;
78856;SDS011;68207;50.078;19.936;2023-04-25T12:29:33;6.50;;;2.40;;
78856;SDS011;68207;50.078;19.936;2023-04-25T12:31:59;6.60;;;3.10;;
78856;SDS011;68207;50.078;19.936;2023-04-25T12:34:26;4.00;;;2.80;;
78856;SDS011;68207;50.078;19.936;2023-04-25T12:36:52;3.20;;;2.50;;
78856;SDS011;68207;50.078;19.936;2023-04-25T12:39:21;6.50;;;2.80;;
78856;SDS011;68207;50.078;19.936;2023-04-25T12:41:48;5.30;;;2.50;;
78856;SDS011;68207;50.078;19.936;2023-04-25T12:44:14;3.40;;;2.50;;
78856;SDS011;68207;50.078;19.936;2023-04-25T12:46:40;4.60;;;2.90;;
78856;SDS011;68207;50.078;19.936;2023-04-25T12:49:06;6.30;;;2.90;;
78856;SDS011;68207;50.078;19.936;2023-04-25T12:51:33;4.10;;;3.00;;
78856;SDS011;68207;50.078;19.936;2023-04-25T12:53:59;4.20;;;2.80;;
78856;SDS011;68207;50.078;19.936;2023-04-25T12:56:28;4.80;;;3.00;;
78856;SDS011;68207;50.078;19.936;2023-04-25T12:58:54;4.40;;;3.40;;
78856;SDS011;68207;50.078;19.936;2023-04-25T13:01:20;5.00;;;3.00;;
78856;SDS011;68207;50.078;19.936;2023-04-25T13:03:46;5.10;;;3.60;;
78856;SDS011;68207;50.078;19.936;2023-04-25T13:06:12;6.00;;;3.60;;
78856;SDS011;68207;50.078;19.936;2023-04-25T13:08:38;5.60;;;3.00;;
78856;SDS011;68207;50.078;19.936;2023-04-25T13:11:04;8.80;;;3.50;;
78856;SDS011;68207;50.078;19.936;2023-04-25T13:13:30;4.90;;;3.10;;
78856;SDS011;68207;50.078;19.936;2023-04-25T13:15:56;4.60;;;2.70;;
78856;SDS011;68207;50.078;19.936;2023-04-25T13:18:22;3.80;;;2.60;;
78856;SDS011;68207;50.078;19.936;2023-04-25T13:20:51;3.70;;;2.40;;
78856;SDS011;68207;50.078;19.936;2023-04-25T13:23:19;5.50;;;3.30;;
78856;SDS011;68207;50.078;19.936;2023-04-25T13:25:45;3.80;;;2.90;;
78856;SDS011;68207;50.078;19.936;2023-04-25T13:28:11;4.50;;;3.00;;
78856;SDS011;68207;50.078;19.936;2023-04-25T13:30:36;4.50;;;3.20;;
78856;SDS011;68207;50.078;19.936;2023-04-25T13:33:02;5.20;;;3.30;;
78856;SDS011;68207;50.078;19.936;2023-04-25T13:35:28;4.30;;;3.50;;
78856;SDS011;68207;50.078;19.936;2023-04-25T13:37:54;3.70;;;2.90;;
78856;SDS011;68207;50.078;19.936;2023-04-25T13:40:20;6.10;;;3.20;;
78856;SDS011;68207;50.078;19.936;2023-04-25T13:42:45;6.30;;;4.00;;
78856;SDS011;68207;50.078;19.936;2023-04-25T13:45:11;5.40;;;3.20;;
78856;SDS011;68207;50.078;19.936;2023-04-25T13:47:36;4.10;;;3.40;;
78856;SDS011;68207;50.078;19.936;2023-04-25T13:50:02;4.10;;;3.00;;
78856;SDS011;68207;50.078;19.936;2023-04-25T13:54:53;3.10;;;2.60;;
78856;SDS011;68207;50.078;19.936;2023-04-25T13:57:19;5.90;;;3.10;;
78856;SDS011;68207;50.078;19.936;2023-04-25T13:59:44;4.00;;;3.00;;
78856;SDS011;68207;50.078;19.936;2023-04-25T14:02:11;5.60;;;2.90;;
78856;SDS011;68207;50.078;19.936;2023-04-25T14:04:36;3.60;;;2.90;;
78856;SDS011;68207;50.078;19.936;2023-04-25T14:07:02;2.90;;;2.50;;
78856;SDS011;68207;50.078;19.936;2023-04-25T14:11:54;3.90;;;2.80;;
78856;SDS011;68207;50.078;19.936;2023-04-25T14:14:20;3.40;;;2.50;;
78856;SDS011;68207;50.078;19.936;2023-04-25T14:16:46;4.50;;;2.30;;
78856;SDS011;68207;50.078;19.936;2023-04-25T14:19:15;3.20;;;2.50;;
78856;SDS011;68207;50.078;19.936;2023-04-25T14:21:41;3.90;;;2.90;;
78856;SDS011;68207;50.078;19.936;2023-04-25T14:24:08;6.10;;;3.90;;
78856;SDS011;68207;50.078;19.936;2023-04-25T14:26:34;3.20;;;2.10;;
78856;SDS011;68207;50.078;19.936;2023-04-25T14:29:02;3.20;;;2.00;;
78856;SDS011;68207;50.078;19.936;2023-04-25T14:31:30;3.00;;;2.00;;
78856;SDS011;68207;50.078;19.936;2023-04-25T14:33:55;2.90;;;2.00;;
78856;SDS011;68207;50.078;19.936;2023-04-25T14:36:20;3.20;;;2.10;;
78856;SDS011;68207;50.078;19.936;2023-04-25T14:38:46;4.10;;;2.30;;
78856;SDS011;68207;50.078;19.936;2023-04-25T14:41:11;3.10;;;2.20;;
78856;SDS011;68207;50.078;19.936;2023-04-25T14:43:36;3.10;;;2.10;;